Time;durP1;ratioP1;P1;durP2;ratioP2;P2;SDS_P1;SDS_P2;PMS_P1;PMS_P2;Temp;Humidity;BMP_temperature;BMP_pressure;BME280_temperature;BME280_humidity;BME280_pressure;Samples;Min_cycle;Max_cycle;Signal;HPM_P1;HPM_P2
2021/09/08 00:00:25;;;;;;;22.67;12.63;;;17.00;52.80;;;;;;5071723;28;20483;-75
2021/09/08 00:02:50;;;;;;;28.53;13.53;;;16.90;53.10;;;;;;5058330;28;20439;-75
2021/09/08 00:05:16;;;;;;;22.00;12.73;;;16.90;53.00;;;;;;5074015;28;20686;-74
2021/09/08 00:07:41;;;;;;;27.00;13.00;;;16.90;53.40;;;;;;5075296;28;20178;-74
2021/09/08 00:10:08;;;;;;;20.33;13.07;;;16.90;53.80;;;;;;5074391;28;20711;-75
2021/09/08 00:12:35;;;;;;;20.37;12.10;;;16.80;53.80;;;;;;5074233;28;20622;-73
2021/09/08 00:15:02;;;;;;;24.10;13.20;;;16.90;54.20;;;;;;5074308;28;20504;-76
2021/09/08 00:17:28;;;;;;;20.40;13.10;;;16.90;54.30;;;;;;5074489;28;20445;-74
2021/09/08 00:19:53;;;;;;;16.30;11.70;;;16.80;54.50;;;;;;5078555;28;20920;-75
2021/09/08 00:22:19;;;;;;;24.00;14.10;;;16.80;55.50;;;;;;5077839;28;20647;-77
2021/09/08 00:24:44;;;;;;;20.27;13.83;;;16.80;55.80;;;;;;5078897;28;20209;-75
2021/09/08 00:27:10;;;;;;;20.30;12.27;;;16.80;56.10;;;;;;5074118;28;20223;-74
2021/09/08 00:29:35;;;;;;;23.87;13.90;;;16.70;56.90;;;;;;5074066;28;20277;-74
2021/09/08 00:32:02;;;;;;;23.30;12.87;;;16.70;57.40;;;;;;5073152;28;20190;-75
2021/09/08 00:34:28;;;;;;;25.17;13.57;;;16.70;57.80;;;;;;5073475;28;20182;-76
2021/09/08 00:36:53;;;;;;;27.33;13.70;;;16.70;57.50;;;;;;5073398;28;20408;-74
2021/09/08 00:39:19;;;;;;;21.53;12.93;;;16.70;57.40;;;;;;5056151;28;20281;-75
2021/09/08 00:41:45;;;;;;;26.17;13.33;;;16.70;57.30;;;;;;5073824;28;20630;-75
2021/09/08 00:44:12;;;;;;;23.30;13.33;;;16.70;57.40;;;;;;5073995;28;20209;-75
2021/09/08 00:46:42;;;;;;;25.00;13.80;;;16.60;58.00;;;;;;5073351;28;20603;-76
2021/09/08 00:49:09;;;;;;;28.27;13.50;;;16.50;59.20;;;;;;5072957;28;20399;-76
2021/09/08 00:51:35;;;;;;;24.03;13.30;;;16.50;59.70;;;;;;5054504;28;20399;-76
2021/09/08 00:54:04;;;;;;;24.10;13.00;;;16.40;60.80;;;;;;5072832;28;20383;-74
2021/09/08 00:56:30;;;;;;;25.13;13.50;;;16.40;61.70;;;;;;5072297;28;20406;-75
2021/09/08 00:58:57;;;;;;;20.60;12.97;;;16.30;62.20;;;;;;5072364;28;20454;-74
2021/09/08 01:01:22;;;;;;;25.47;13.80;;;16.30;62.80;;;;;;5072535;28;20440;-75
2021/09/08 01:03:48;;;;;;;26.10;14.17;;;16.30;63.30;;;;;;5071256;28;20438;-76
2021/09/08 01:06:15;;;;;;;21.63;12.40;;;16.30;63.60;;;;;;5072237;28;20186;-76
2021/09/08 01:08:42;;;;;;;23.30;13.47;;;16.40;62.00;;;;;;5071443;28;20403;-75
2021/09/08 01:11:08;;;;;;;18.33;12.00;;;16.30;62.50;;;;;;5072720;28;20519;-75
2021/09/08 01:13:33;;;;;;;24.27;14.10;;;16.50;61.00;;;;;;5072432;28;20432;-75
2021/09/08 01:16:02;;;;;;;22.67;14.43;;;16.50;60.50;;;;;;5072445;28;20806;-76
2021/09/08 01:18:31;;;;;;;23.80;13.30;;;16.30;62.00;;;;;;5072322;28;20215;-74
2021/09/08 01:20:56;;;;;;;22.50;13.40;;;16.20;63.40;;;;;;5072442;28;20803;-75
2021/09/08 01:23:22;;;;;;;25.97;13.53;;;16.10;64.30;;;;;;5088036;28;20419;-74
2021/09/08 01:25:48;;;;;;;25.83;14.47;;;16.20;64.80;;;;;;5086669;28;20570;-75
2021/09/08 01:28:13;;;;;;;21.60;13.40;;;16.20;63.50;;;;;;5055568;28;20198;-75
2021/09/08 01:30:41;;;;;;;22.27;14.00;;;16.10;63.90;;;;;;5074469;28;20538;-75
2021/09/08 01:33:09;;;;;;;22.20;14.33;;;16.10;64.80;;;;;;5076662;28;20437;-75
2021/09/08 01:35:35;;;;;;;19.03;12.70;;;16.00;65.50;;;;;;5056648;28;20417;-76
2021/09/08 01:38:00;;;;;;;24.77;13.80;;;15.90;66.60;;;;;;5055031;28;20476;-76
2021/09/08 01:40:26;;;;;;;23.90;13.70;;;15.80;67.60;;;;;;5062383;28;20305;-76
2021/09/08 01:42:51;;;;;;;26.50;13.60;;;15.80;69.10;;;;;;5052048;28;20265;-76
2021/09/08 01:45:17;;;;;;;22.43;13.57;;;15.80;69.00;;;;;;5067914;28;20201;-74
2021/09/08 01:47:43;;;;;;;23.50;13.57;;;15.80;68.80;;;;;;5071634;28;20253;-75
2021/09/08 01:50:10;;;;;;;24.17;13.00;;;15.70;69.50;;;;;;5071579;28;20178;-76
2021/09/08 01:52:37;;;;;;;24.90;13.17;;;15.70;70.70;;;;;;5071501;28;20999;-75
2021/09/08 01:55:04;;;;;;;20.10;13.43;;;15.60;71.60;;;;;;5053353;28;20511;-73
2021/09/08 01:57:30;;;;;;;19.00;12.30;;;15.60;71.80;;;;;;5052979;28;20407;-76
2021/09/08 01:59:55;;;;;;;22.90;14.53;;;15.60;72.90;;;;;;5071469;28;20516;-75
2021/09/08 02:02:21;;;;;;;21.23;13.70;;;15.50;72.80;;;;;;5064109;28;20214;-75
2021/09/08 02:04:47;;;;;;;21.00;13.40;;;15.50;73.50;;;;;;5072503;28;20201;-76
2021/09/08 02:07:12;;;;;;;21.63;13.20;;;15.40;74.60;;;;;;5071480;28;20186;-76
2021/09/08 02:09:38;;;;;;;25.33;13.20;;;15.40;75.10;;;;;;5071603;28;20221;-75
2021/09/08 02:12:03;;;;;;;27.43;14.10;;;15.40;75.40;;;;;;5071831;28;20234;-75
2021/09/08 02:14:29;;;;;;;23.43;12.67;;;15.30;76.00;;;;;;5071813;28;20185;-76
2021/09/08 02:16:55;;;;;;;24.50;13.67;;;15.40;76.70;;;;;;5071837;28;20428;-77
2021/09/08 02:19:20;;;;;;;23.57;14.20;;;15.40;77.30;;;;;;5053334;28;20297;-77
2021/09/08 02:21:46;;;;;;;21.60;12.63;;;15.30;77.40;;;;;;5087783;28;20215;-73
2021/09/08 02:24:11;;;;;;;23.83;12.50;;;15.40;76.90;;;;;;5077092;28;20711;-77
2021/09/08 02:26:37;;;;;;;28.33;13.40;;;15.50;75.60;;;;;;5079676;28;20201;-76
2021/09/08 02:29:02;;;;;;;24.67;14.90;;;15.50;76.10;;;;;;5063639;28;20194;-76
2021/09/08 02:31:28;;;;;;;23.20;13.50;;;15.60;74.60;;;;;;5060824;28;20189;-76
2021/09/08 02:33:53;;;;;;;20.03;12.90;;;15.50;75.00;;;;;;5070600;28;20411;-74
2021/09/08 02:36:21;;;;;;;23.87;13.30;;;15.40;77.10;;;;;;5061572;28;20174;-76
2021/09/08 02:38:47;;;;;;;27.33;13.70;;;15.60;73.40;;;;;;5072010;28;20254;-76
2021/09/08 02:41:13;;;;;;;25.67;14.70;;;15.40;73.90;;;;;;5071640;28;20795;-75
2021/09/08 02:43:38;;;;;;;24.40;13.70;;;15.40;75.20;;;;;;5072033;28;20174;-75
2021/09/08 02:46:06;;;;;;;23.60;13.77;;;15.30;77.10;;;;;;5072477;28;20642;-74
2021/09/08 02:48:32;;;;;;;20.97;12.70;;;15.20;78.50;;;;;;5072041;28;20185;-75
2021/09/08 02:50:58;;;;;;;24.33;13.40;;;15.20;79.20;;;;;;5053777;28;20464;-75
2021/09/08 02:53:24;;;;;;;22.40;13.23;;;15.20;79.10;;;;;;5071359;28;20414;-75
2021/09/08 02:55:50;;;;;;;21.67;12.90;;;15.20;79.80;;;;;;5077258;28;20401;-75
2021/09/08 02:58:15;;;;;;;21.03;12.80;;;15.20;79.60;;;;;;5081651;28;20567;-75
2021/09/08 03:00:41;;;;;;;24.43;13.03;;;15.20;79.80;;;;;;5084164;28;20261;-74
2021/09/08 03:03:07;;;;;;;27.53;14.13;;;15.20;79.60;;;;;;5074001;28;20197;-75
2021/09/08 03:05:32;;;;;;;25.70;15.80;;;15.20;79.70;;;;;;5072206;28;20403;-74
2021/09/08 03:07:58;;;;;;;25.57;14.07;;;15.40;77.50;;;;;;5072800;28;20204;-75
2021/09/08 03:10:23;;;;;;;22.43;13.23;;;15.50;74.10;;;;;;5071934;28;20171;-75
2021/09/08 03:12:49;;;;;;;24.70;14.33;;;15.40;75.30;;;;;;5053836;28;20186;-75
2021/09/08 03:15:15;;;;;;;22.60;14.37;;;15.40;76.00;;;;;;5071592;28;20194;-76
2021/09/08 03:17:40;;;;;;;20.80;12.70;;;15.30;76.90;;;;;;5070785;28;20220;-75
2021/09/08 03:20:06;;;;;;;28.00;13.47;;;15.30;76.50;;;;;;5072331;28;20184;-73
2021/09/08 03:22:32;;;;;;;22.97;13.70;;;15.30;76.90;;;;;;5080789;28;20169;-75
2021/09/08 03:24:58;;;;;;;25.30;13.70;;;15.30;76.10;;;;;;5100240;28;20481;-73
2021/09/08 03:27:24;;;;;;;27.73;14.60;;;15.30;77.60;;;;;;5104025;28;20179;-74
2021/09/08 03:29:49;;;;;;;22.60;14.30;;;15.20;78.30;;;;;;5084994;28;20197;-74
2021/09/08 03:32:15;;;;;;;24.87;13.97;;;15.10;79.30;;;;;;5073049;28;20519;-74
2021/09/08 03:34:41;;;;;;;21.57;13.60;;;15.10;80.00;;;;;;5075310;28;20193;-75
2021/09/08 03:37:06;;;;;;;23.20;14.10;;;15.00;81.20;;;;;;5079263;28;20177;-75
2021/09/08 03:39:32;;;;;;;21.90;13.17;;;15.00;81.70;;;;;;5103242;28;20792;-74
2021/09/08 03:41:57;;;;;;;24.83;14.57;;;15.00;80.50;;;;;;5086293;28;20177;-74
2021/09/08 03:44:23;;;;;;;28.80;14.60;;;14.90;81.00;;;;;;5079047;28;20200;-75
2021/09/08 03:46:48;;;;;;;22.67;13.73;;;14.90;82.70;;;;;;5088742;28;20222;-73
2021/09/08 03:49:14;;;;;;;31.63;13.93;;;14.90;82.90;;;;;;5081488;28;20203;-75
2021/09/08 03:51:40;;;;;;;27.40;14.67;;;14.80;83.80;;;;;;5074545;28;20172;-74
2021/09/08 03:54:05;;;;;;;25.07;14.93;;;14.80;85.50;;;;;;5074524;28;20181;-76
2021/09/08 03:56:31;;;;;;;22.07;12.93;;;14.80;84.80;;;;;;5074372;28;20273;-75
2021/09/08 03:58:56;;;;;;;29.87;14.30;;;14.80;85.10;;;;;;5074162;28;20244;-74
2021/09/08 04:01:22;;;;;;;25.63;16.30;;;14.80;85.10;;;;;;5072880;28;20379;-74
2021/09/08 04:03:48;;;;;;;31.10;15.97;;;14.80;85.50;;;;;;5074166;28;20178;-73
2021/09/08 04:06:15;;;;;;;26.80;14.03;;;14.80;85.50;;;;;;5074075;28;20209;-73
2021/09/08 04:08:40;;;;;;;28.43;15.57;;;14.70;86.20;;;;;;5073964;28;20428;-74
2021/09/08 04:11:06;;;;;;;26.47;14.93;;;14.70;87.50;;;;;;5073876;28;20450;-74
2021/09/08 04:13:32;;;;;;;27.73;13.87;;;14.70;87.40;;;;;;5073771;28;20181;-74
2021/09/08 04:15:57;;;;;;;23.70;14.47;;;14.60;87.90;;;;;;5074093;28;20177;-73
2021/09/08 04:18:23;;;;;;;25.33;13.43;;;14.50;88.50;;;;;;5073409;28;20209;-73
2021/09/08 04:20:48;;;;;;;23.50;14.00;;;14.50;89.90;;;;;;5056033;28;20184;-73
2021/09/08 04:23:14;;;;;;;24.67;14.33;;;14.50;91.20;;;;;;5073646;28;20189;-73
2021/09/08 04:25:40;;;;;;;26.10;14.40;;;14.50;91.20;;;;;;5090379;28;20208;-74
2021/09/08 04:28:06;;;;;;;34.17;15.70;;;14.50;90.40;;;;;;5095251;28;20192;-74
2021/09/08 04:30:31;;;;;;;21.80;13.43;;;14.50;90.20;;;;;;5095699;28;20890;-74
2021/09/08 04:32:57;;;;;;;25.30;12.73;;;14.50;90.70;;;;;;5093201;28;20172;-73
2021/09/08 04:35:23;;;;;;;22.90;14.20;;;14.40;90.80;;;;;;5074146;28;20176;-75
2021/09/08 04:37:48;;;;;;;21.07;13.73;;;14.40;91.60;;;;;;5074477;28;20177;-74
2021/09/08 04:40:14;;;;;;;27.87;15.87;;;14.40;90.70;;;;;;5065203;28;20435;-74
2021/09/08 04:42:40;;;;;;;29.87;17.70;;;14.40;90.50;;;;;;5034586;28;20758;-76
2021/09/08 04:45:05;;;;;;;28.10;17.48;;;14.40;91.00;;;;;;5053438;28;20411;-75
2021/09/08 04:47:31;;;;;;;24.88;17.13;;;14.40;91.50;;;;;;5052791;28;20473;-74
2021/09/08 04:49:56;;;;;;;29.25;17.65;;;14.40;91.80;;;;;;5052971;28;20385;-75
2021/09/08 04:52:22;;;;;;;29.25;17.77;;;14.30;91.80;;;;;;5044080;28;20791;-75
2021/09/08 04:54:47;;;;;;;33.10;16.17;;;14.30;92.00;;;;;;5094489;28;20168;-75
2021/09/08 04:57:13;;;;;;;26.87;14.03;;;14.30;91.70;;;;;;5093660;28;20255;-74
2021/09/08 04:59:39;;;;;;;21.47;14.50;;;14.20;91.60;;;;;;5094619;28;20184;-75
2021/09/08 05:02:04;;;;;;;28.57;16.13;;;14.20;91.40;;;;;;5070270;28;20181;-76
2021/09/08 05:04:30;;;;;;;25.40;15.17;;;14.20;91.00;;;;;;5071684;28;20208;-74
2021/09/08 05:06:55;;;;;;;26.73;15.27;;;14.30;90.30;;;;;;5072825;28;20180;-75
2021/09/08 05:09:21;;;;;;;21.73;13.07;;;14.30;89.10;;;;;;5072659;28;20672;-75
2021/09/08 05:11:46;;;;;;;32.40;15.30;;;14.30;89.40;;;;;;5073127;28;20171;-75
2021/09/08 05:14:12;;;;;;;26.83;14.97;;;14.40;87.10;;;;;;5055417;28;20210;-76
2021/09/08 05:16:38;;;;;;;29.10;14.73;;;14.40;87.20;;;;;;5072674;28;20187;-75
2021/09/08 05:19:03;;;;;;;26.60;14.73;;;14.50;86.10;;;;;;5072593;28;20677;-73
2021/09/08 05:21:29;;;;;;;29.93;16.40;;;14.60;85.30;;;;;;5071844;28;20190;-75
2021/09/08 05:23:55;;;;;;;27.03;14.73;;;14.60;83.50;;;;;;5075746;28;20195;-74
2021/09/08 05:26:20;;;;;;;27.60;15.70;;;14.60;84.30;;;;;;5093066;28;20175;-75
2021/09/08 05:28:46;;;;;;;27.07;16.13;;;14.70;83.10;;;;;;5092750;28;20498;-73
2021/09/08 05:31:12;;;;;;;31.67;14.50;;;14.70;83.00;;;;;;5092696;28;20168;-73
2021/09/08 05:33:37;;;;;;;28.87;15.73;;;14.70;83.50;;;;;;5084994;28;20182;-74
2021/09/08 05:36:03;;;;;;;23.80;14.63;;;14.70;83.40;;;;;;5072776;28;20197;-73
2021/09/08 05:38:29;;;;;;;24.37;15.10;;;14.80;81.40;;;;;;5073067;28;20208;-74
2021/09/08 05:40:54;;;;;;;23.43;14.00;;;14.80;81.10;;;;;;5056388;28;20187;-74
2021/09/08 05:43:20;;;;;;;50.07;15.97;;;15.00;78.70;;;;;;5057401;28;20170;-76
2021/09/08 05:45:46;;;;;;;23.97;14.60;;;15.20;74.40;;;;;;5055622;28;20462;-75
2021/09/08 05:48:11;;;;;;;25.40;15.50;;;15.50;70.00;;;;;;5077763;28;20530;-73
2021/09/08 05:50:37;;;;;;;22.20;13.73;;;15.50;69.30;;;;;;5076706;28;20170;-74
2021/09/08 05:53:03;;;;;;;30.90;14.80;;;15.60;69.00;;;;;;5074740;28;20171;-75
2021/09/08 05:55:30;;;;;;;22.50;14.17;;;15.60;69.60;;;;;;5074653;28;20261;-75
2021/09/08 05:57:55;;;;;;;23.43;14.37;;;15.60;68.80;;;;;;5074277;28;20399;-75
2021/09/08 06:00:21;;;;;;;30.73;15.33;;;15.70;68.60;;;;;;5074308;28;20409;-76
2021/09/08 06:02:47;;;;;;;27.97;16.10;;;15.80;66.60;;;;;;5075188;28;20537;-76
2021/09/08 06:05:12;;;;;;;30.10;15.93;;;15.80;67.20;;;;;;5056687;28;20716;-75
2021/09/08 06:07:38;;;;;;;27.00;15.20;;;15.90;66.80;;;;;;5073646;28;20169;-74
2021/09/08 06:10:04;;;;;;;30.00;15.70;;;15.90;65.90;;;;;;5073086;28;20196;-75
2021/09/08 06:12:30;;;;;;;25.90;14.43;;;16.00;65.40;;;;;;5072441;28;20170;-74
2021/09/08 06:14:56;;;;;;;24.40;14.77;;;16.30;61.90;;;;;;5054968;28;21011;-75
2021/09/08 06:17:21;;;;;;;26.03;14.90;;;16.40;59.80;;;;;;5072782;28;20186;-74
2021/09/08 06:19:47;;;;;;;29.33;15.10;;;16.50;59.70;;;;;;5087416;28;20208;-75
2021/09/08 06:22:12;;;;;;;29.00;15.40;;;16.70;57.90;;;;;;5071600;28;20175;-74
2021/09/08 06:24:38;;;;;;;24.97;14.13;;;16.80;56.00;;;;;;5080403;28;20213;-75
2021/09/08 06:27:03;;;;;;;27.13;14.67;;;16.80;55.10;;;;;;5077124;28;20182;-75
2021/09/08 06:29:29;;;;;;;33.70;13.70;;;16.90;54.60;;;;;;5071360;28;20198;-75
2021/09/08 06:31:54;;;;;;;22.47;14.07;;;17.10;53.60;;;;;;5071576;28;20268;-75
2021/09/08 06:34:20;;;;;;;38.20;15.67;;;17.10;52.80;;;;;;5087140;28;20178;-75
2021/09/08 06:36:46;;;;;;;24.63;14.60;;;17.30;52.70;;;;;;5072279;28;20201;-75
2021/09/08 06:39:11;;;;;;;21.40;14.17;;;17.40;50.80;;;;;;5071553;28;20259;-74
2021/09/08 06:41:37;;;;;;;23.20;13.70;;;17.50;50.30;;;;;;5053040;28;20200;-74
2021/09/08 06:44:03;;;;;;;23.70;13.60;;;17.60;49.60;;;;;;5071961;28;20651;-76
2021/09/08 06:46:28;;;;;;;24.93;14.27;;;17.80;50.00;;;;;;5071808;28;20255;-75
2021/09/08 06:48:54;;;;;;;27.27;15.70;;;17.90;48.60;;;;;;5071170;28;20406;-74
2021/09/08 06:51:20;;;;;;;23.20;14.30;;;18.00;47.90;;;;;;5053576;28;20235;-74
2021/09/08 06:53:46;;;;;;;22.80;13.93;;;18.20;47.10;;;;;;5071480;28;20396;-75
2021/09/08 06:56:12;;;;;;;23.27;14.20;;;18.30;47.00;;;;;;5071008;28;20423;-73
2021/09/08 06:58:37;;;;;;;22.83;14.53;;;18.40;45.70;;;;;;5052990;28;20194;-74
2021/09/08 07:01:03;;;;;;;29.37;14.47;;;18.60;44.80;;;;;;5071571;28;20539;-74
2021/09/08 07:03:28;;;;;;;22.40;12.90;;;18.70;44.40;;;;;;5071556;28;20532;-74
2021/09/08 07:05:54;;;;;;;24.80;13.40;;;18.80;43.90;;;;;;5071477;28;20324;-73
2021/09/08 07:08:19;;;;;;;23.67;12.33;;;19.00;43.80;;;;;;5072202;28;20663;-75
2021/09/08 07:10:45;;;;;;;29.03;15.70;;;19.10;42.80;;;;;;5075460;28;20182;-75
2021/09/08 07:13:11;;;;;;;23.60;13.40;;;19.30;41.80;;;;;;5075195;28;20200;-76
2021/09/08 07:15:36;;;;;;;32.17;15.60;;;19.40;41.50;;;;;;5074986;28;20178;-73
2021/09/08 07:18:02;;;;;;;22.93;13.17;;;19.50;40.70;;;;;;5074925;28;20200;-75
2021/09/08 07:20:28;;;;;;;20.80;13.60;;;19.60;40.60;;;;;;5090673;28;20201;-75
2021/09/08 07:22:53;;;;;;;23.27;13.93;;;19.70;39.70;;;;;;5090286;28;20171;-74
2021/09/08 07:25:19;;;;;;;26.30;13.90;;;19.90;39.30;;;;;;5089687;28;20197;-74
2021/09/08 07:27:45;;;;;;;22.83;14.67;;;20.00;38.80;;;;;;5094599;28;20192;-75
2021/09/08 07:30:11;;;;;;;24.07;15.07;;;20.10;38.30;;;;;;5094939;28;20209;-74
2021/09/08 07:32:37;;;;;;;19.60;14.00;;;20.20;37.30;;;;;;5077148;28;20315;-77
2021/09/08 07:35:03;;;;;;;22.93;13.80;;;20.30;37.30;;;;;;5077395;28;20542;-76
2021/09/08 07:37:28;;;;;;;23.07;13.53;;;20.40;37.40;;;;;;5074692;28;20920;-76
2021/09/08 07:39:54;;;;;;;24.50;13.53;;;20.40;36.60;;;;;;5075184;28;20478;-76
2021/09/08 07:42:19;;;;;;;25.60;14.53;;;20.50;36.00;;;;;;5074726;28;20656;-75
2021/09/08 07:44:45;;;;;;;26.47;14.67;;;20.60;35.80;;;;;;5074506;28;20291;-75
2021/09/08 07:47:11;;;;;;;22.63;13.90;;;20.70;35.30;;;;;;5074248;28;20194;-76
2021/09/08 07:49:37;;;;;;;23.80;15.07;;;20.80;34.90;;;;;;5075058;28;20195;-75
2021/09/08 07:52:03;;;;;;;21.20;14.20;;;20.90;33.90;;;;;;5076540;28;20416;-77
2021/09/08 07:54:29;;;;;;;19.90;13.30;;;21.00;33.30;;;;;;5075365;28;20232;-75
2021/09/08 07:56:55;;;;;;;25.13;14.77;;;21.10;33.70;;;;;;5077502;28;20411;-76
2021/09/08 07:59:21;;;;;;;20.13;13.50;;;21.20;32.80;;;;;;5071374;28;20204;-76
2021/09/08 08:01:47;;;;;;;20.20;13.37;;;21.30;32.50;;;;;;5073583;28;20661;-76
2021/09/08 08:04:12;;;;;;;;;;;21.30;32.00;;;;;;5074479;28;20543;-76
2021/09/08 08:06:38;;;;;;;;;;;21.40;31.60;;;;;;5056998;28;20011;-76
2021/09/08 08:09:04;;;;;;;;;;;21.50;31.70;;;;;;5078644;28;20012;-74
2021/09/08 08:11:30;;;;;;;;;;;21.50;31.50;;;;;;5079492;28;20349;-75
2021/09/08 08:13:55;;;;;;;;;;;21.60;31.20;;;;;;5081585;28;19954;-75
2021/09/08 08:16:21;;;;;;;;;;;21.70;31.00;;;;;;5084846;28;19909;-76
2021/09/08 08:18:46;;;;;;;;;;;21.70;30.40;;;;;;5077658;28;19905;-77
2021/09/08 08:21:12;;;;;;;;;;;21.80;30.60;;;;;;5074649;28;20282;-73
2021/09/08 08:23:37;;;;;;;;;;;21.90;30.50;;;;;;5075266;28;19908;-74
2021/09/08 08:26:03;;;;;;;;;;;21.90;29.90;;;;;;5101670;28;19908;-76
2021/09/08 08:28:30;;;;;;;;;;;21.90;30.40;;;;;;5081020;28;19992;-75
2021/09/08 08:30:56;;;;;;;;;;;22.00;30.10;;;;;;5064596;28;19905;-74
2021/09/08 08:36:42;;;;;;;22.10;14.73;;;22.30;30.00;;;;;;5068791;28;20368;-75
2021/09/08 08:39:14;;;;;;;23.20;15.38;;;22.30;30.50;;;;;;5047799;28;20389;-75
2021/09/08 08:41:39;;;;;;;25.92;15.80;;;22.40;30.20;;;;;;5058885;28;20395;-76
2021/09/08 08:44:06;;;;;;;27.20;14.87;;;22.40;29.30;;;;;;5054438;28;20429;-76
2021/09/08 08:46:32;;;;;;;20.35;14.88;;;22.40;29.50;;;;;;5058554;28;20401;-76
2021/09/08 08:48:58;;;;;;;24.48;15.63;;;22.50;29.70;;;;;;5054589;22;20428;-72
2021/09/08 08:51:24;;;;;;;20.58;14.43;;;22.60;28.60;;;;;;5029896;28;20459;-72
2021/09/08 08:53:50;;;;;;;25.25;15.40;;;22.70;28.80;;;;;;5031387;28;20396;-73
2021/09/08 08:56:16;;;;;;;19.23;14.77;;;22.80;28.40;;;;;;5028224;28;20400;-72
2021/09/08 08:58:42;;;;;;;27.13;16.20;;;22.80;28.10;;;;;;5047512;28;20801;-73
2021/09/08 09:01:13;;;;;;;22.08;14.50;;;22.90;27.90;;;;;;5036907;28;20395;-73
2021/09/08 09:03:38;;;;;;;22.70;15.02;;;22.90;28.10;;;;;;5041642;28;20390;-74
2021/09/08 09:06:04;;;;;;;23.80;15.40;;;23.00;27.50;;;;;;5033920;28;20401;-74
2021/09/08 09:08:34;;;;;;;20.23;15.27;;;23.00;27.80;;;;;;5045892;28;20474;-73
2021/09/08 09:11:00;;;;;;;20.27;14.07;;;23.20;27.20;;;;;;5011147;28;20394;-73
2021/09/08 09:13:33;;;;;;;20.00;14.05;;;23.30;27.20;;;;;;5040701;28;20737;-71
2021/09/08 09:16:09;;;;;;;19.85;14.20;;;23.40;26.00;;;;;;5040705;28;20418;-73
2021/09/08 09:18:43;;;;;;;21.20;14.50;;;23.40;25.70;;;;;;5035416;28;20863;-73
2021/09/08 09:21:14;;;;;;;20.58;13.98;;;23.40;25.60;;;;;;5046604;28;20448;-73
2021/09/08 09:23:45;;;;;;;19.77;13.73;;;23.50;25.50;;;;;;5045861;28;20390;-73
2021/09/08 09:26:11;;;;;;;20.03;14.00;;;23.50;25.30;;;;;;5044740;28;20751;-74
2021/09/08 09:28:43;;;;;;;19.40;13.70;;;23.60;24.50;;;;;;5026666;28;20478;-74
2021/09/08 09:31:27;;;;;;;18.85;13.32;;;23.80;24.20;;;;;;5035044;28;20394;-73
2021/09/08 09:33:57;;;;;;;20.25;14.40;;;23.90;23.90;;;;;;5012546;28;20700;-73
2021/09/08 09:36:31;;;;;;;22.20;13.60;;;23.90;23.70;;;;;;5029218;28;20415;-73
2021/09/08 09:38:58;;;;;;;20.48;14.85;;;23.90;23.50;;;;;;5047198;28;20386;-72
2021/09/08 09:41:31;;;;;;;21.02;14.80;;;23.90;24.10;;;;;;5047303;28;20395;-73
2021/09/08 09:44:04;;;;;;;17.58;13.38;;;24.00;24.10;;;;;;5032462;28;20811;-73
2021/09/08 09:46:30;;;;;;;19.20;14.27;;;24.00;23.80;;;;;;5027130;28;20396;-73
2021/09/08 09:48:55;;;;;;;20.40;13.55;;;24.10;23.30;;;;;;5017483;28;20813;-72
2021/09/08 09:51:21;;;;;;;19.87;14.50;;;24.20;23.20;;;;;;5022702;28;20482;-73
2021/09/08 09:53:46;;;;;;;20.80;14.30;;;24.30;23.00;;;;;;5033175;28;20467;-73
2021/09/08 09:56:13;;;;;;;18.67;13.27;;;24.30;22.80;;;;;;5023876;28;20909;-73
2021/09/08 09:58:39;;;;;;;23.95;14.50;;;24.50;22.40;;;;;;5013143;28;20465;-73
2021/09/08 10:01:05;;;;;;;23.02;13.63;;;24.40;21.70;;;;;;5019485;28;20469;-73
2021/09/08 10:03:31;;;;;;;16.98;13.18;;;24.50;22.10;;;;;;5024923;28;20400;-73
2021/09/08 10:05:59;;;;;;;17.10;13.15;;;24.60;21.90;;;;;;5012810;28;20436;-73
2021/09/08 10:08:27;;;;;;;22.50;14.65;;;24.70;21.90;;;;;;5012985;28;20758;-73
2021/09/08 10:10:55;;;;;;;18.08;13.52;;;24.80;20.30;;;;;;5016377;28;20409;-73
2021/09/08 10:13:28;;;;;;;20.73;13.85;;;25.00;20.40;;;;;;5032265;28;20878;-73
2021/09/08 10:15:54;;;;;;;20.77;13.90;;;25.00;21.30;;;;;;5029715;28;20907;-72
2021/09/08 10:18:25;;;;;;;19.23;13.43;;;25.00;20.10;;;;;;5012403;28;20407;-73
2021/09/08 10:21:06;;;;;;;21.30;14.47;;;25.00;20.90;;;;;;5013019;28;20742;-73
2021/09/08 10:23:34;;;;;;;19.92;13.82;;;25.00;20.40;;;;;;5012677;28;20400;-74
2021/09/08 10:26:10;;;;;;;18.58;13.25;;;25.10;19.90;;;;;;5011615;28;20882;-73
2021/09/08 10:28:37;;;;;;;20.50;14.00;;;25.20;19.60;;;;;;5012623;28;20845;-73
2021/09/08 10:31:02;;;;;;;17.40;13.23;;;25.30;19.30;;;;;;5012861;28;20950;-73
2021/09/08 10:33:28;;;;;;;15.85;12.98;;;25.40;19.00;;;;;;5012908;28;20397;-74
2021/09/08 10:35:55;;;;;;;21.60;13.20;;;25.40;19.20;;;;;;5013173;28;20458;-73
2021/09/08 10:38:23;;;;;;;18.45;13.00;;;25.40;18.90;;;;;;5032164;28;20848;-73
2021/09/08 10:40:51;;;;;;;16.15;12.98;;;25.50;18.90;;;;;;5032310;28;20474;-73
2021/09/08 10:43:27;;;;;;;16.05;12.57;;;25.60;18.00;;;;;;4992811;28;20398;-72
2021/09/08 10:45:54;;;;;;;18.10;12.50;;;25.70;18.00;;;;;;4992569;28;20422;-72
2021/09/08 10:48:42;;;;;;;19.15;13.15;;;25.70;17.80;;;;;;5001992;28;20396;-75
2021/09/08 10:51:20;;;;;;;19.20;13.05;;;25.80;17.00;;;;;;5013649;28;20745;-74
2021/09/08 10:54:02;;;;;;;15.70;12.40;;;25.90;16.60;;;;;;5031959;28;20462;-71
2021/09/08 10:56:46;;;;;;;19.27;13.03;;;25.90;16.60;;;;;;5028404;28;20414;-73
2021/09/08 10:59:12;;;;;;;16.42;12.30;;;25.90;16.30;;;;;;5020562;28;20855;-72
2021/09/08 11:01:39;;;;;;;17.15;12.38;;;26.00;16.90;;;;;;5013546;28;20988;-73
2021/09/08 11:04:18;;;;;;;16.95;12.88;;;26.10;16.90;;;;;;5023942;28;20459;-73
2021/09/08 11:06:48;;;;;;;19.58;12.82;;;26.20;15.80;;;;;;5013989;28;20393;-71
2021/09/08 11:09:18;;;;;;;17.23;12.82;;;26.20;16.70;;;;;;5024650;28;20396;-72
2021/09/08 11:11:56;;;;;;;20.63;13.50;;;26.20;16.20;;;;;;5014389;28;20391;-72
2021/09/08 11:14:51;;;;;;;15.23;12.65;;;26.20;16.00;;;;;;5000099;28;20403;-73
2021/09/08 11:17:25;;;;;;;18.48;12.52;;;26.30;15.80;;;;;;5013375;28;20424;-72
2021/09/08 11:19:56;;;;;;;17.60;12.75;;;26.20;15.20;;;;;;5011901;28;20401;-75
2021/09/08 11:22:23;;;;;;;17.40;12.10;;;26.40;15.10;;;;;;5026568;28;20478;-72
2021/09/08 11:25:14;;;;;;;15.02;12.02;;;26.40;15.00;;;;;;5025678;28;20410;-73
2021/09/08 11:27:50;;;;;;;16.77;11.63;;;26.50;13.50;;;;;;5024711;28;20409;-73
2021/09/08 11:30:16;;;;;;;14.70;11.75;;;26.50;14.30;;;;;;5011673;28;20419;-72
2021/09/08 11:32:47;;;;;;;14.60;11.52;;;26.50;14.10;;;;;;5025404;28;20422;-73
2021/09/08 11:35:13;;;;;;;17.00;11.68;;;26.70;13.60;;;;;;5028533;28;20410;-73
2021/09/08 11:37:43;;;;;;;13.48;11.43;;;26.80;13.60;;;;;;5024416;28;20401;-72
2021/09/08 11:40:09;;;;;;;14.75;11.20;;;26.70;12.70;;;;;;5030984;28;20393;-72
2021/09/08 11:42:42;;;;;;;15.45;12.45;;;26.80;13.20;;;;;;5030361;28;20386;-72
2021/09/08 11:45:08;;;;;;;14.07;11.98;;;26.90;12.80;;;;;;5010692;28;20412;-73
2021/09/08 11:47:34;;;;;;;13.70;11.30;;;26.90;12.90;;;;;;5008224;28;20893;-73
2021/09/08 11:50:00;;;;;;;13.57;11.68;;;26.90;13.40;;;;;;5015400;28;20402;-73
2021/09/08 11:52:26;;;;;;;15.57;12.82;;;26.90;13.30;;;;;;5031192;28;20926;-72
2021/09/08 11:54:52;;;;;;;16.95;12.00;;;26.90;13.10;;;;;;5013907;28;20416;-73
2021/09/08 11:57:25;;;;;;;15.37;11.80;;;27.00;13.40;;;;;;5026712;28;20833;-73
2021/09/08 11:59:54;;;;;;;15.60;11.75;;;27.00;12.80;;;;;;5038688;28;20375;-73
2021/09/08 12:02:20;;;;;;;13.25;11.40;;;26.90;12.10;;;;;;5033689;28;20437;-73
2021/09/08 12:04:46;;;;;;;16.90;10.93;;;26.90;12.20;;;;;;5012913;28;20470;-73
2021/09/08 12:07:12;;;;;;;13.90;10.87;;;27.00;13.00;;;;;;5015065;28;20401;-73
2021/09/08 12:09:45;;;;;;;15.60;11.27;;;27.10;12.50;;;;;;5018653;28;20391;-72
2021/09/08 12:12:15;;;;;;;15.23;10.68;;;27.20;12.90;;;;;;5028315;28;20449;-72
2021/09/08 12:14:50;;;;;;;21.25;11.38;;;27.30;11.70;;;;;;5013202;28;20623;-72
2021/09/08 12:17:18;;;;;;;13.13;10.70;;;27.30;11.70;;;;;;5011619;28;20392;-74
2021/09/08 12:19:45;;;;;;;15.68;11.68;;;27.30;11.60;;;;;;5024596;28;20447;-73
2021/09/08 12:22:38;;;;;;;14.53;11.37;;;27.30;12.10;;;;;;5013971;28;20384;-72
2021/09/08 12:25:15;;;;;;;13.85;10.55;;;27.40;11.20;;;;;;4990917;28;20918;-71
2021/09/08 12:27:52;;;;;;;16.33;10.80;;;27.40;11.50;;;;;;5014389;28;20430;-73
2021/09/08 12:30:17;;;;;;;13.53;9.17;;;27.40;11.10;;;;;;5030342;28;20522;-72
2021/09/08 12:33:04;;;;;;;14.25;9.90;;;27.40;10.50;;;;;;5028146;28;20608;-72